sensor_id;sensor_type;location;lat;lon;timestamp;temperature;humidity
15959;DHT22;8078;47.822;9.402;2023-04-24T00:01:49;7.50;99.90
15959;DHT22;8078;47.822;9.402;2023-04-24T00:04:15;7.50;99.90
15959;DHT22;8078;47.822;9.402;2023-04-24T00:06:42;7.50;99.90
15959;DHT22;8078;47.822;9.402;2023-04-24T00:09:09;7.50;99.90
15959;DHT22;8078;47.822;9.402;2023-04-24T00:11:37;7.50;99.90
15959;DHT22;8078;47.822;9.402;2023-04-24T00:14:03;7.40;99.90
15959;DHT22;8078;47.822;9.402;2023-04-24T00:16:29;7.40;99.90
15959;DHT22;8078;47.822;9.402;2023-04-24T00:18:54;7.40;99.90
15959;DHT22;8078;47.822;9.402;2023-04-24T00:21:20;7.40;99.90
15959;DHT22;8078;47.822;9.402;2023-04-24T00:23:47;7.40;99.90
15959;DHT22;8078;47.822;9.402;2023-04-24T00:26:13;7.30;99.90
15959;DHT22;8078;47.822;9.402;2023-04-24T00:28:38;7.30;99.90
15959;DHT22;8078;47.822;9.402;2023-04-24T00:31:04;7.30;99.90
15959;DHT22;8078;47.822;9.402;2023-04-24T00:33:29;7.40;99.90
15959;DHT22;8078;47.822;9.402;2023-04-24T00:35:55;7.30;99.90
15959;DHT22;8078;47.822;9.402;2023-04-24T00:38:21;7.30;99.90
15959;DHT22;8078;47.822;9.402;2023-04-24T00:40:47;7.30;99.90
15959;DHT22;8078;47.822;9.402;2023-04-24T00:43:13;7.30;99.90
15959;DHT22;8078;47.822;9.402;2023-04-24T00:45:39;7.30;99.90
15959;DHT22;8078;47.822;9.402;2023-04-24T00:48:05;7.30;99.90
15959;DHT22;8078;47.822;9.402;2023-04-24T00:50:32;7.30;99.90
15959;DHT22;8078;47.822;9.402;2023-04-24T00:52:57;7.30;99.90
15959;DHT22;8078;47.822;9.402;2023-04-24T00:55:24;7.40;99.90
15959;DHT22;8078;47.822;9.402;2023-04-24T00:57:50;7.30;99.90
15959;DHT22;8078;47.822;9.402;2023-04-24T01:00:16;7.30;99.90
15959;DHT22;8078;47.822;9.402;2023-04-24T01:02:43;7.30;99.90
15959;DHT22;8078;47.822;9.402;2023-04-24T01:05:14;7.40;99.90
15959;DHT22;8078;47.822;9.402;2023-04-24T01:07:41;7.30;99.90
15959;DHT22;8078;47.822;9.402;2023-04-24T01:10:11;7.40;99.90
15959;DHT22;8078;47.822;9.402;2023-04-24T01:12:37;7.30;99.90
15959;DHT22;8078;47.822;9.402;2023-04-24T01:15:03;7.30;99.90
15959;DHT22;8078;47.822;9.402;2023-04-24T01:17:29;7.30;99.90
15959;DHT22;8078;47.822;9.402;2023-04-24T01:19:55;7.30;99.90
15959;DHT22;8078;47.822;9.402;2023-04-24T01:22:22;7.30;99.90
15959;DHT22;8078;47.822;9.402;2023-04-24T01:24:48;7.30;99.90
15959;DHT22;8078;47.822;9.402;2023-04-24T01:27:14;7.30;99.90
15959;DHT22;8078;47.822;9.402;2023-04-24T01:29:40;7.40;99.90
15959;DHT22;8078;47.822;9.402;2023-04-24T01:32:06;7.40;99.90
15959;DHT22;8078;47.822;9.402;2023-04-24T01:34:33;7.30;99.90
15959;DHT22;8078;47.822;9.402;2023-04-24T01:36:58;7.30;99.90
15959;DHT22;8078;47.822;9.402;2023-04-24T01:39:24;7.30;99.90
15959;DHT22;8078;47.822;9.402;2023-04-24T01:41:51;7.30;99.90
15959;DHT22;8078;47.822;9.402;2023-04-24T01:44:18;7.30;99.90
15959;DHT22;8078;47.822;9.402;2023-04-24T01:46:44;7.30;99.90
15959;DHT22;8078;47.822;9.402;2023-04-24T01:49:09;7.30;99.90
15959;DHT22;8078;47.822;9.402;2023-04-24T01:51:35;7.20;99.90
15959;DHT22;8078;47.822;9.402;2023-04-24T01:54:01;7.20;99.90
15959;DHT22;8078;47.822;9.402;2023-04-24T01:56:29;7.20;99.90
15959;DHT22;8078;47.822;9.402;2023-04-24T01:58:55;7.20;99.90
15959;DHT22;8078;47.822;9.402;2023-04-24T02:01:23;7.10;99.90
15959;DHT22;8078;47.822;9.402;2023-04-24T02:03:49;7.10;99.90
15959;DHT22;8078;47.822;9.402;2023-04-24T02:06:14;7.10;99.90
15959;DHT22;8078;47.822;9.402;2023-04-24T02:08:40;7.10;99.90
15959;DHT22;8078;47.822;9.402;2023-04-24T02:11:06;7.10;99.90
15959;DHT22;8078;47.822;9.402;2023-04-24T02:13:31;7.00;99.90
15959;DHT22;8078;47.822;9.402;2023-04-24T02:15:58;7.00;99.90
15959;DHT22;8078;47.822;9.402;2023-04-24T02:18:24;7.00;99.90
15959;DHT22;8078;47.822;9.402;2023-04-24T02:20:49;7.00;99.90
15959;DHT22;8078;47.822;9.402;2023-04-24T02:23:15;7.00;99.90
15959;DHT22;8078;47.822;9.402;2023-04-24T02:25:40;6.90;99.90
15959;DHT22;8078;47.822;9.402;2023-04-24T02:28:06;6.90;99.90
15959;DHT22;8078;47.822;9.402;2023-04-24T02:30:32;6.90;99.90
15959;DHT22;8078;47.822;9.402;2023-04-24T02:32:57;6.90;99.90
15959;DHT22;8078;47.822;9.402;2023-04-24T02:35:23;6.80;99.90
15959;DHT22;8078;47.822;9.402;2023-04-24T02:37:48;6.80;99.90
15959;DHT22;8078;47.822;9.402;2023-04-24T02:40:14;6.80;99.90
15959;DHT22;8078;47.822;9.402;2023-04-24T02:42:39;6.80;99.90
15959;DHT22;8078;47.822;9.402;2023-04-24T02:45:05;6.80;99.90
15959;DHT22;8078;47.822;9.402;2023-04-24T02:47:31;6.80;99.90
15959;DHT22;8078;47.822;9.402;2023-04-24T02:49:57;6.80;99.90
15959;DHT22;8078;47.822;9.402;2023-04-24T02:52:22;6.70;99.90
15959;DHT22;8078;47.822;9.402;2023-04-24T02:54:48;6.70;99.90
15959;DHT22;8078;47.822;9.402;2023-04-24T02:57:13;6.70;99.90
15959;DHT22;8078;47.822;9.402;2023-04-24T02:59:40;6.70;99.90
15959;DHT22;8078;47.822;9.402;2023-04-24T03:02:05;6.70;99.90
15959;DHT22;8078;47.822;9.402;2023-04-24T03:04:31;6.70;99.90
15959;DHT22;8078;47.822;9.402;2023-04-24T03:06:57;6.70;99.90
15959;DHT22;8078;47.822;9.402;2023-04-24T03:09:23;6.70;99.90
15959;DHT22;8078;47.822;9.402;2023-04-24T03:11:49;6.70;99.90
15959;DHT22;8078;47.822;9.402;2023-04-24T03:14:15;6.60;99.90
15959;DHT22;8078;47.822;9.402;2023-04-24T03:16:40;6.70;99.90
15959;DHT22;8078;47.822;9.402;2023-04-24T03:19:06;6.70;99.90
15959;DHT22;8078;47.822;9.402;2023-04-24T03:21:32;6.70;99.90
15959;DHT22;8078;47.822;9.402;2023-04-24T03:23:58;6.70;99.90
15959;DHT22;8078;47.822;9.402;2023-04-24T03:26:23;6.60;99.90
15959;DHT22;8078;47.822;9.402;2023-04-24T03:28:49;6.60;99.90
15959;DHT22;8078;47.822;9.402;2023-04-24T03:31:14;6.60;99.90
15959;DHT22;8078;47.822;9.402;2023-04-24T03:33:40;6.60;99.90
15959;DHT22;8078;47.822;9.402;2023-04-24T03:36:06;6.50;99.90
15959;DHT22;8078;47.822;9.402;2023-04-24T03:38:32;6.60;99.90
15959;DHT22;8078;47.822;9.402;2023-04-24T03:40:57;6.50;99.90
15959;DHT22;8078;47.822;9.402;2023-04-24T03:43:23;6.50;99.90
15959;DHT22;8078;47.822;9.402;2023-04-24T03:45:49;6.50;99.90
15959;DHT22;8078;47.822;9.402;2023-04-24T03:48:14;6.50;99.90
15959;DHT22;8078;47.822;9.402;2023-04-24T03:50:40;6.50;99.90
15959;DHT22;8078;47.822;9.402;2023-04-24T03:53:06;6.50;99.90
15959;DHT22;8078;47.822;9.402;2023-04-24T03:55:32;6.50;99.90
15959;DHT22;8078;47.822;9.402;2023-04-24T03:57:57;6.40;99.90
15959;DHT22;8078;47.822;9.402;2023-04-24T04:00:23;6.50;99.90
15959;DHT22;8078;47.822;9.402;2023-04-24T04:02:48;6.40;99.90
15959;DHT22;8078;47.822;9.402;2023-04-24T04:05:14;6.40;99.90
15959;DHT22;8078;47.822;9.402;2023-04-24T04:07:40;6.40;99.90
15959;DHT22;8078;47.822;9.402;2023-04-24T04:10:05;6.40;99.90
15959;DHT22;8078;47.822;9.402;2023-04-24T04:12:32;6.40;99.90
15959;DHT22;8078;47.822;9.402;2023-04-24T04:14:58;6.40;99.90
15959;DHT22;8078;47.822;9.402;2023-04-24T04:17:23;6.30;99.90
15959;DHT22;8078;47.822;9.402;2023-04-24T04:19:49;6.30;99.90
15959;DHT22;8078;47.822;9.402;2023-04-24T04:22:14;6.30;99.90
15959;DHT22;8078;47.822;9.402;2023-04-24T04:24:40;6.40;99.90
15959;DHT22;8078;47.822;9.402;2023-04-24T04:27:06;6.40;99.90
15959;DHT22;8078;47.822;9.402;2023-04-24T04:29:33;6.30;99.90
15959;DHT22;8078;47.822;9.402;2023-04-24T04:32:01;6.30;99.90
15959;DHT22;8078;47.822;9.402;2023-04-24T04:34:27;6.30;99.90
15959;DHT22;8078;47.822;9.402;2023-04-24T04:36:53;6.30;99.90
15959;DHT22;8078;47.822;9.402;2023-04-24T04:39:18;6.30;99.90
15959;DHT22;8078;47.822;9.402;2023-04-24T04:41:45;6.30;99.90
15959;DHT22;8078;47.822;9.402;2023-04-24T04:44:14;6.30;99.90
15959;DHT22;8078;47.822;9.402;2023-04-24T04:46:40;6.30;99.90
15959;DHT22;8078;47.822;9.402;2023-04-24T04:49:07;6.40;99.90
15959;DHT22;8078;47.822;9.402;2023-04-24T04:51:34;6.40;99.90
15959;DHT22;8078;47.822;9.402;2023-04-24T04:53:59;6.30;99.90
15959;DHT22;8078;47.822;9.402;2023-04-24T04:56:25;6.30;99.90
15959;DHT22;8078;47.822;9.402;2023-04-24T04:58:51;6.40;99.90
15959;DHT22;8078;47.822;9.402;2023-04-24T05:01:17;6.30;99.90
15959;DHT22;8078;47.822;9.402;2023-04-24T05:03:42;6.40;99.90
15959;DHT22;8078;47.822;9.402;2023-04-24T05:06:08;6.30;99.90
15959;DHT22;8078;47.822;9.402;2023-04-24T05:08:34;6.30;99.90
15959;DHT22;8078;47.822;9.402;2023-04-24T05:11:00;6.30;99.90
15959;DHT22;8078;47.822;9.402;2023-04-24T05:13:25;6.30;99.90
15959;DHT22;8078;47.822;9.402;2023-04-24T05:15:51;6.30;99.90
15959;DHT22;8078;47.822;9.402;2023-04-24T05:18:17;6.30;99.90
15959;DHT22;8078;47.822;9.402;2023-04-24T05:20:42;6.30;99.90
15959;DHT22;8078;47.822;9.402;2023-04-24T05:23:09;6.30;99.90
15959;DHT22;8078;47.822;9.402;2023-04-24T05:25:35;6.30;99.90
15959;DHT22;8078;47.822;9.402;2023-04-24T05:28:01;6.30;99.90
15959;DHT22;8078;47.822;9.402;2023-04-24T05:30:27;6.30;99.90
15959;DHT22;8078;47.822;9.402;2023-04-24T05:32:53;6.20;99.90
15959;DHT22;8078;47.822;9.402;2023-04-24T05:35:18;6.20;99.90
15959;DHT22;8078;47.822;9.402;2023-04-24T05:37:44;6.20;99.90
15959;DHT22;8078;47.822;9.402;2023-04-24T05:40:10;6.20;99.90
15959;DHT22;8078;47.822;9.402;2023-04-24T05:42:36;6.20;99.90
15959;DHT22;8078;47.822;9.402;2023-04-24T05:45:02;6.20;99.90
15959;DHT22;8078;47.822;9.402;2023-04-24T05:47:27;6.20;99.90
15959;DHT22;8078;47.822;9.402;2023-04-24T05:49:53;6.20;99.90
15959;DHT22;8078;47.822;9.402;2023-04-24T05:52:18;6.20;99.90
15959;DHT22;8078;47.822;9.402;2023-04-24T05:54:44;6.10;99.90
15959;DHT22;8078;47.822;9.402;2023-04-24T05:57:10;6.20;99.90
15959;DHT22;8078;47.822;9.402;2023-04-24T05:59:40;6.10;99.90
15959;DHT22;8078;47.822;9.402;2023-04-24T06:02:06;6.20;99.90
15959;DHT22;8078;47.822;9.402;2023-04-24T06:04:32;6.10;99.90
15959;DHT22;8078;47.822;9.402;2023-04-24T06:06:58;6.10;99.90
15959;DHT22;8078;47.822;9.402;2023-04-24T06:09:25;6.10;99.90
15959;DHT22;8078;47.822;9.402;2023-04-24T06:11:51;6.20;99.90
15959;DHT22;8078;47.822;9.402;2023-04-24T06:14:19;6.20;99.90
15959;DHT22;8078;47.822;9.402;2023-04-24T06:16:44;6.20;99.90
15959;DHT22;8078;47.822;9.402;2023-04-24T06:19:10;6.20;99.90
15959;DHT22;8078;47.822;9.402;2023-04-24T06:21:35;6.20;99.90
15959;DHT22;8078;47.822;9.402;2023-04-24T06:24:01;6.30;99.90
15959;DHT22;8078;47.822;9.402;2023-04-24T06:26:27;6.30;99.90
15959;DHT22;8078;47.822;9.402;2023-04-24T06:28:53;6.20;99.90
15959;DHT22;8078;47.822;9.402;2023-04-24T06:31:21;6.30;99.90
15959;DHT22;8078;47.822;9.402;2023-04-24T06:33:48;6.20;99.90
15959;DHT22;8078;47.822;9.402;2023-04-24T06:36:14;6.30;99.90
15959;DHT22;8078;47.822;9.402;2023-04-24T06:38:41;6.40;99.90
15959;DHT22;8078;47.822;9.402;2023-04-24T06:41:06;6.40;99.90
15959;DHT22;8078;47.822;9.402;2023-04-24T06:43:33;6.50;99.90
15959;DHT22;8078;47.822;9.402;2023-04-24T06:45:59;6.50;99.90
15959;DHT22;8078;47.822;9.402;2023-04-24T06:48:25;6.40;99.90
15959;DHT22;8078;47.822;9.402;2023-04-24T06:50:51;6.50;99.90
15959;DHT22;8078;47.822;9.402;2023-04-24T06:53:17;6.50;99.90
15959;DHT22;8078;47.822;9.402;2023-04-24T06:55:43;6.50;99.90
15959;DHT22;8078;47.822;9.402;2023-04-24T06:58:10;6.60;99.90
15959;DHT22;8078;47.822;9.402;2023-04-24T07:00:36;6.60;99.90
15959;DHT22;8078;47.822;9.402;2023-04-24T07:03:01;6.60;99.90
15959;DHT22;8078;47.822;9.402;2023-04-24T07:05:27;6.70;99.90
15959;DHT22;8078;47.822;9.402;2023-04-24T07:07:53;6.80;99.90
15959;DHT22;8078;47.822;9.402;2023-04-24T07:10:19;6.80;99.90
15959;DHT22;8078;47.822;9.402;2023-04-24T07:12:45;6.80;99.90
15959;DHT22;8078;47.822;9.402;2023-04-24T07:15:12;6.80;99.90
15959;DHT22;8078;47.822;9.402;2023-04-24T07:17:37;6.80;99.90
15959;DHT22;8078;47.822;9.402;2023-04-24T07:20:04;7.00;99.90
15959;DHT22;8078;47.822;9.402;2023-04-24T07:22:30;7.00;99.90
15959;DHT22;8078;47.822;9.402;2023-04-24T07:24:56;6.90;99.90
15959;DHT22;8078;47.822;9.402;2023-04-24T07:27:22;6.90;99.90
15959;DHT22;8078;47.822;9.402;2023-04-24T07:29:47;7.20;99.90
15959;DHT22;8078;47.822;9.402;2023-04-24T07:32:13;7.30;99.90
15959;DHT22;8078;47.822;9.402;2023-04-24T07:34:39;7.40;99.90
15959;DHT22;8078;47.822;9.402;2023-04-24T07:37:04;7.30;99.90
15959;DHT22;8078;47.822;9.402;2023-04-24T07:39:30;7.40;99.90
15959;DHT22;8078;47.822;9.402;2023-04-24T07:41:56;7.40;99.90
15959;DHT22;8078;47.822;9.402;2023-04-24T07:44:21;7.40;99.90
15959;DHT22;8078;47.822;9.402;2023-04-24T07:46:47;7.30;99.90
15959;DHT22;8078;47.822;9.402;2023-04-24T07:49:13;7.20;99.90
15959;DHT22;8078;47.822;9.402;2023-04-24T07:51:38;7.30;99.90
15959;DHT22;8078;47.822;9.402;2023-04-24T07:54:05;7.40;99.90
15959;DHT22;8078;47.822;9.402;2023-04-24T07:56:33;7.30;99.90
15959;DHT22;8078;47.822;9.402;2023-04-24T07:58:59;7.00;99.90
15959;DHT22;8078;47.822;9.402;2023-04-24T08:01:26;6.90;99.90
15959;DHT22;8078;47.822;9.402;2023-04-24T08:03:52;6.90;99.90
15959;DHT22;8078;47.822;9.402;2023-04-24T08:06:17;6.90;99.90
15959;DHT22;8078;47.822;9.402;2023-04-24T08:08:43;7.00;99.90
15959;DHT22;8078;47.822;9.402;2023-04-24T08:11:09;7.00;99.90
15959;DHT22;8078;47.822;9.402;2023-04-24T08:13:34;7.30;99.90
15959;DHT22;8078;47.822;9.402;2023-04-24T08:16:00;7.70;99.90
15959;DHT22;8078;47.822;9.402;2023-04-24T08:18:26;8.00;99.90
15959;DHT22;8078;47.822;9.402;2023-04-24T08:20:51;7.80;99.90
15959;DHT22;8078;47.822;9.402;2023-04-24T08:23:17;7.70;99.90
15959;DHT22;8078;47.822;9.402;2023-04-24T08:25:42;7.70;99.90
15959;DHT22;8078;47.822;9.402;2023-04-24T08:28:09;7.80;99.90
15959;DHT22;8078;47.822;9.402;2023-04-24T08:30:35;7.70;99.90
15959;DHT22;8078;47.822;9.402;2023-04-24T08:33:00;7.70;99.90
15959;DHT22;8078;47.822;9.402;2023-04-24T08:35:26;7.60;99.90
15959;DHT22;8078;47.822;9.402;2023-04-24T08:37:52;7.50;99.90
15959;DHT22;8078;47.822;9.402;2023-04-24T08:40:22;7.40;99.90
15959;DHT22;8078;47.822;9.402;2023-04-24T08:42:54;7.10;99.90
15959;DHT22;8078;47.822;9.402;2023-04-24T08:45:20;7.00;99.90
15959;DHT22;8078;47.822;9.402;2023-04-24T08:47:46;6.90;99.90
15959;DHT22;8078;47.822;9.402;2023-04-24T08:50:13;7.00;99.90
15959;DHT22;8078;47.822;9.402;2023-04-24T08:52:38;7.40;99.90
15959;DHT22;8078;47.822;9.402;2023-04-24T08:55:05;7.80;99.90
15959;DHT22;8078;47.822;9.402;2023-04-24T08:57:31;7.60;99.90
15959;DHT22;8078;47.822;9.402;2023-04-24T08:59:58;7.80;99.90
15959;DHT22;8078;47.822;9.402;2023-04-24T09:02:24;8.20;99.90
15959;DHT22;8078;47.822;9.402;2023-04-24T09:04:51;8.60;99.90
15959;DHT22;8078;47.822;9.402;2023-04-24T09:07:18;8.70;99.90
15959;DHT22;8078;47.822;9.402;2023-04-24T09:09:45;8.50;99.90
15959;DHT22;8078;47.822;9.402;2023-04-24T09:12:11;8.20;99.90
15959;DHT22;8078;47.822;9.402;2023-04-24T09:14:37;8.50;99.90
15959;DHT22;8078;47.822;9.402;2023-04-24T09:17:08;8.50;99.90
15959;DHT22;8078;47.822;9.402;2023-04-24T09:19:33;9.00;99.90
15959;DHT22;8078;47.822;9.402;2023-04-24T09:21:59;8.70;99.90
15959;DHT22;8078;47.822;9.402;2023-04-24T09:24:24;9.10;99.90
15959;DHT22;8078;47.822;9.402;2023-04-24T09:26:58;8.90;99.90
15959;DHT22;8078;47.822;9.402;2023-04-24T09:29:24;8.60;99.90
15959;DHT22;8078;47.822;9.402;2023-04-24T09:31:50;8.60;99.90
15959;DHT22;8078;47.822;9.402;2023-04-24T09:34:24;8.50;99.90
15959;DHT22;8078;47.822;9.402;2023-04-24T09:36:50;8.60;99.90
15959;DHT22;8078;47.822;9.402;2023-04-24T09:39:17;8.90;99.90
15959;DHT22;8078;47.822;9.402;2023-04-24T09:41:49;8.70;99.90
15959;DHT22;8078;47.822;9.402;2023-04-24T09:44:18;8.70;99.90
15959;DHT22;8078;47.822;9.402;2023-04-24T09:46:50;8.50;99.90
15959;DHT22;8078;47.822;9.402;2023-04-24T09:49:21;8.40;99.90
15959;DHT22;8078;47.822;9.402;2023-04-24T09:51:47;8.30;99.90
15959;DHT22;8078;47.822;9.402;2023-04-24T09:54:20;8.50;99.90
15959;DHT22;8078;47.822;9.402;2023-04-24T09:56:48;8.70;99.90
15959;DHT22;8078;47.822;9.402;2023-04-24T09:59:15;9.00;99.90
15959;DHT22;8078;47.822;9.402;2023-04-24T10:01:41;9.30;99.90
15959;DHT22;8078;47.822;9.402;2023-04-24T10:04:22;8.90;99.90
15959;DHT22;8078;47.822;9.402;2023-04-24T10:06:49;8.90;99.90
15959;DHT22;8078;47.822;9.402;2023-04-24T10:09:16;8.70;99.90
15959;DHT22;8078;47.822;9.402;2023-04-24T10:11:44;8.70;99.90
15959;DHT22;8078;47.822;9.402;2023-04-24T10:14:18;8.60;99.90
15959;DHT22;8078;47.822;9.402;2023-04-24T10:16:44;8.60;99.90
15959;DHT22;8078;47.822;9.402;2023-04-24T10:19:12;8.70;99.90
15959;DHT22;8078;47.822;9.402;2023-04-24T10:21:40;8.60;99.90
15959;DHT22;8078;47.822;9.402;2023-04-24T10:24:08;9.00;99.90
15959;DHT22;8078;47.822;9.402;2023-04-24T10:26:34;9.20;99.90
15959;DHT22;8078;47.822;9.402;2023-04-24T10:29:01;9.00;99.90
15959;DHT22;8078;47.822;9.402;2023-04-24T10:31:29;8.90;99.90
15959;DHT22;8078;47.822;9.402;2023-04-24T10:33:56;9.20;99.90
15959;DHT22;8078;47.822;9.402;2023-04-24T10:36:24;9.50;99.90
15959;DHT22;8078;47.822;9.402;2023-04-24T10:38:53;9.80;99.90
15959;DHT22;8078;47.822;9.402;2023-04-24T10:41:20;10.20;99.90
15959;DHT22;8078;47.822;9.402;2023-04-24T10:43:58;10.20;99.90
15959;DHT22;8078;47.822;9.402;2023-04-24T10:46:30;10.10;99.90
15959;DHT22;8078;47.822;9.402;2023-04-24T10:48:55;9.60;99.90
15959;DHT22;8078;47.822;9.402;2023-04-24T10:51:25;9.50;99.90
15959;DHT22;8078;47.822;9.402;2023-04-24T10:57:26;9.80;99.90
15959;DHT22;8078;47.822;9.402;2023-04-24T11:00:18;10.00;99.90
15959;DHT22;8078;47.822;9.402;2023-04-24T11:02:46;9.50;99.90
15959;DHT22;8078;47.822;9.402;2023-04-24T11:05:15;9.30;99.90
15959;DHT22;8078;47.822;9.402;2023-04-24T11:11:01;9.70;99.90
15959;DHT22;8078;47.822;9.402;2023-04-24T11:18:59;9.30;99.90
15959;DHT22;8078;47.822;9.402;2023-04-24T11:21:25;9.50;99.90
15959;DHT22;8078;47.822;9.402;2023-04-24T11:23:51;9.50;99.90
15959;DHT22;8078;47.822;9.402;2023-04-24T11:26:19;9.70;99.90
15959;DHT22;8078;47.822;9.402;2023-04-24T11:28:51;9.60;99.90
15959;DHT22;8078;47.822;9.402;2023-04-24T11:31:44;9.80;99.90
15959;DHT22;8078;47.822;9.402;2023-04-24T11:34:14;9.70;99.90
15959;DHT22;8078;47.822;9.402;2023-04-24T11:36:44;9.70;99.90
15959;DHT22;8078;47.822;9.402;2023-04-24T11:39:09;10.00;99.90
15959;DHT22;8078;47.822;9.402;2023-04-24T11:41:36;9.90;99.90
15959;DHT22;8078;47.822;9.402;2023-04-24T11:44:03;9.20;99.90
15959;DHT22;8078;47.822;9.402;2023-04-24T11:46:31;9.30;99.90
15959;DHT22;8078;47.822;9.402;2023-04-24T11:48:57;9.80;99.90
15959;DHT22;8078;47.822;9.402;2023-04-24T11:51:24;9.70;99.90
15959;DHT22;8078;47.822;9.402;2023-04-24T11:53:56;9.80;99.90
15959;DHT22;8078;47.822;9.402;2023-04-24T11:56:25;9.70;99.90
15959;DHT22;8078;47.822;9.402;2023-04-24T11:58:53;10.00;99.90
15959;DHT22;8078;47.822;9.402;2023-04-24T12:01:20;10.30;99.90
15959;DHT22;8078;47.822;9.402;2023-04-24T12:03:50;9.80;99.90
15959;DHT22;8078;47.822;9.402;2023-04-24T12:06:17;9.70;99.90
15959;DHT22;8078;47.822;9.402;2023-04-24T12:08:46;9.40;99.90
15959;DHT22;8078;47.822;9.402;2023-04-24T12:11:15;9.40;99.90
15959;DHT22;8078;47.822;9.402;2023-04-24T12:13:41;9.90;99.90
15959;DHT22;8078;47.822;9.402;2023-04-24T12:16:07;10.30;99.90
15959;DHT22;8078;47.822;9.402;2023-04-24T12:18:32;10.70;99.90
15959;DHT22;8078;47.822;9.402;2023-04-24T12:21:21;10.40;99.90
15959;DHT22;8078;47.822;9.402;2023-04-24T12:23:47;10.30;99.90
15959;DHT22;8078;47.822;9.402;2023-04-24T12:26:17;10.70;99.90
15959;DHT22;8078;47.822;9.402;2023-04-24T12:28:47;11.40;99.90
15959;DHT22;8078;47.822;9.402;2023-04-24T12:31:13;11.00;99.90
15959;DHT22;8078;47.822;9.402;2023-04-24T12:33:38;10.80;99.90
15959;DHT22;8078;47.822;9.402;2023-04-24T12:36:04;10.60;99.90
15959;DHT22;8078;47.822;9.402;2023-04-24T12:38:31;9.70;99.90
15959;DHT22;8078;47.822;9.402;2023-04-24T12:41:14;9.90;99.90
15959;DHT22;8078;47.822;9.402;2023-04-24T12:43:51;9.80;99.90
15959;DHT22;8078;47.822;9.402;2023-04-24T12:46:17;10.20;99.90
15959;DHT22;8078;47.822;9.402;2023-04-24T12:48:43;9.80;99.90
15959;DHT22;8078;47.822;9.402;2023-04-24T12:51:08;9.50;99.90
15959;DHT22;8078;47.822;9.402;2023-04-24T12:53:34;9.50;99.90
15959;DHT22;8078;47.822;9.402;2023-04-24T12:55:59;9.30;99.90
15959;DHT22;8078;47.822;9.402;2023-04-24T12:58:25;9.20;99.90
15959;DHT22;8078;47.822;9.402;2023-04-24T13:00:51;9.30;99.90
15959;DHT22;8078;47.822;9.402;2023-04-24T13:03:17;9.80;99.90
15959;DHT22;8078;47.822;9.402;2023-04-24T13:05:43;10.00;99.90
15959;DHT22;8078;47.822;9.402;2023-04-24T13:08:09;10.40;99.90
15959;DHT22;8078;47.822;9.402;2023-04-24T13:10:35;10.10;99.90
15959;DHT22;8078;47.822;9.402;2023-04-24T13:13:00;9.80;99.90
15959;DHT22;8078;47.822;9.402;2023-04-24T13:15:26;9.80;99.90
15959;DHT22;8078;47.822;9.402;2023-04-24T13:17:52;9.70;99.90
15959;DHT22;8078;47.822;9.402;2023-04-24T13:20:17;9.80;99.90
15959;DHT22;8078;47.822;9.402;2023-04-24T13:22:43;10.30;99.90
15959;DHT22;8078;47.822;9.402;2023-04-24T13:25:09;10.80;99.90
15959;DHT22;8078;47.822;9.402;2023-04-24T13:27:35;11.20;99.90
15959;DHT22;8078;47.822;9.402;2023-04-24T13:30:03;10.90;99.90
15959;DHT22;8078;47.822;9.402;2023-04-24T13:32:29;11.20;99.90
15959;DHT22;8078;47.822;9.402;2023-04-24T13:34:55;11.10;99.90
15959;DHT22;8078;47.822;9.402;2023-04-24T13:37:21;11.40;99.90
15959;DHT22;8078;47.822;9.402;2023-04-24T13:39:48;11.40;99.90
15959;DHT22;8078;47.822;9.402;2023-04-24T13:42:13;10.50;99.90
15959;DHT22;8078;47.822;9.402;2023-04-24T13:44:39;10.10;99.90
15959;DHT22;8078;47.822;9.402;2023-04-24T13:47:05;10.40;99.90
15959;DHT22;8078;47.822;9.402;2023-04-24T13:49:31;10.10;99.90
15959;DHT22;8078;47.822;9.402;2023-04-24T13:51:56;10.00;99.90
15959;DHT22;8078;47.822;9.402;2023-04-24T13:54:22;9.60;99.90
15959;DHT22;8078;47.822;9.402;2023-04-24T13:56:49;9.60;99.90
15959;DHT22;8078;47.822;9.402;2023-04-24T13:59:15;9.80;99.90
15959;DHT22;8078;47.822;9.402;2023-04-24T14:01:41;9.80;99.90
15959;DHT22;8078;47.822;9.402;2023-04-24T14:04:07;9.70;99.90
15959;DHT22;8078;47.822;9.402;2023-04-24T14:06:32;9.90;99.90
15959;DHT22;8078;47.822;9.402;2023-04-24T14:08:58;9.70;99.90
15959;DHT22;8078;47.822;9.402;2023-04-24T14:11:24;9.90;99.90
15959;DHT22;8078;47.822;9.402;2023-04-24T14:13:49;9.90;99.90
15959;DHT22;8078;47.822;9.402;2023-04-24T14:16:15;10.10;99.90
15959;DHT22;8078;47.822;9.402;2023-04-24T14:18:41;10.50;99.90
15959;DHT22;8078;47.822;9.402;2023-04-24T14:21:06;10.70;99.90
15959;DHT22;8078;47.822;9.402;2023-04-24T14:23:33;10.20;99.90
15959;DHT22;8078;47.822;9.402;2023-04-24T14:25:58;10.00;99.90
15959;DHT22;8078;47.822;9.402;2023-04-24T14:28:25;9.70;99.90
15959;DHT22;8078;47.822;9.402;2023-04-24T14:30:51;9.50;99.90
15959;DHT22;8078;47.822;9.402;2023-04-24T14:33:17;9.40;99.90
15959;DHT22;8078;47.822;9.402;2023-04-24T14:35:43;9.30;99.90
15959;DHT22;8078;47.822;9.402;2023-04-24T14:38:09;9.30;99.90
15959;DHT22;8078;47.822;9.402;2023-04-24T14:40:35;9.30;99.90
15959;DHT22;8078;47.822;9.402;2023-04-24T14:43:01;9.40;99.90
15959;DHT22;8078;47.822;9.402;2023-04-24T14:45:26;9.50;99.90
15959;DHT22;8078;47.822;9.402;2023-04-24T14:47:53;9.30;99.90
15959;DHT22;8078;47.822;9.402;2023-04-24T14:50:19;9.20;99.90
15959;DHT22;8078;47.822;9.402;2023-04-24T14:52:44;9.30;99.90
15959;DHT22;8078;47.822;9.402;2023-04-24T14:55:10;9.40;99.90
15959;DHT22;8078;47.822;9.402;2023-04-24T14:57:36;9.30;99.90
15959;DHT22;8078;47.822;9.402;2023-04-24T15:00:03;9.30;99.90
15959;DHT22;8078;47.822;9.402;2023-04-24T15:02:32;9.30;99.90
15959;DHT22;8078;47.822;9.402;2023-04-24T15:04:58;9.50;99.90
15959;DHT22;8078;47.822;9.402;2023-04-24T15:07:24;9.60;99.90
15959;DHT22;8078;47.822;9.402;2023-04-24T15:09:49;9.80;99.90
15959;DHT22;8078;47.822;9.402;2023-04-24T15:12:15;9.80;99.90
15959;DHT22;8078;47.822;9.402;2023-04-24T15:14:41;9.80;99.90
15959;DHT22;8078;47.822;9.402;2023-04-24T15:17:06;9.60;99.90
15959;DHT22;8078;47.822;9.402;2023-04-24T15:19:32;9.70;99.90
15959;DHT22;8078;47.822;9.402;2023-04-24T15:21:57;9.60;99.90
15959;DHT22;8078;47.822;9.402;2023-04-24T15:24:23;9.70;99.90
15959;DHT22;8078;47.822;9.402;2023-04-24T15:26:48;9.70;99.90
15959;DHT22;8078;47.822;9.402;2023-04-24T15:29:14;9.60;99.90
15959;DHT22;8078;47.822;9.402;2023-04-24T15:31:40;9.70;99.90
15959;DHT22;8078;47.822;9.402;2023-04-24T15:34:06;9.50;99.90
15959;DHT22;8078;47.822;9.402;2023-04-24T15:36:31;9.50;99.90
15959;DHT22;8078;47.822;9.402;2023-04-24T15:38:57;9.40;99.90
15959;DHT22;8078;47.822;9.402;2023-04-24T15:41:23;9.30;99.90
15959;DHT22;8078;47.822;9.402;2023-04-24T15:43:48;9.10;99.90
15959;DHT22;8078;47.822;9.402;2023-04-24T15:46:14;9.10;99.90
15959;DHT22;8078;47.822;9.402;2023-04-24T15:48:42;9.20;99.90
15959;DHT22;8078;47.822;9.402;2023-04-24T15:51:07;9.30;99.90
15959;DHT22;8078;47.822;9.402;2023-04-24T15:53:33;9.30;99.90
15959;DHT22;8078;47.822;9.402;2023-04-24T15:55:59;9.40;99.90
15959;DHT22;8078;47.822;9.402;2023-04-24T15:58:24;9.20;99.90
15959;DHT22;8078;47.822;9.402;2023-04-24T16:00:50;9.20;99.90
15959;DHT22;8078;47.822;9.402;2023-04-24T16:03:16;9.10;99.90
15959;DHT22;8078;47.822;9.402;2023-04-24T16:05:41;9.20;99.90
15959;DHT22;8078;47.822;9.402;2023-04-24T16:08:07;9.40;99.90